sensor_id;sensor_type;location;lat;lon;timestamp;P1;durP1;ratioP1;P2;durP2;ratioP2
15498;SDS011;7851;52.260;6.030;2022-12-04T00:02:47;35.6;;;26.6;;
15498;SDS011;7851;52.260;6.030;2022-12-04T00:02:47;40.3;;;27.1;;
15498;SDS011;7851;52.260;6.030;2022-12-04T00:03:39;36.1;;;27;;
15498;SDS011;7851;52.260;6.030;2022-12-04T00:04:39;44.6;;;27.7;;
15498;SDS011;7851;52.260;6.030;2022-12-04T00:05:42;44.5;;;27.7;;
15498;SDS011;7851;52.260;6.030;2022-12-04T00:06:42;39.5;;;27.7;;
15498;SDS011;7851;52.260;6.030;2022-12-04T00:07:42;40.8;;;27.8;;
15498;SDS011;7851;52.260;6.030;2022-12-04T00:08:42;41.4;;;29.8;;
15498;SDS011;7851;52.260;6.030;2022-12-04T00:09:42;40.3;;;28.2;;
15498;SDS011;7851;52.260;6.030;2022-12-04T00:10:42;38.4;;;28.6;;
15498;SDS011;7851;52.260;6.030;2022-12-04T00:11:42;43;;;28.3;;
15498;SDS011;7851;52.260;6.030;2022-12-04T00:12:42;37.1;;;27.4;;
15498;SDS011;7851;52.260;6.030;2022-12-04T00:13:42;41.8;;;28.8;;
15498;SDS011;7851;52.260;6.030;2022-12-04T00:14:42;43.4;;;28.5;;
15498;SDS011;7851;52.260;6.030;2022-12-04T00:15:42;42.4;;;27.5;;
15498;SDS011;7851;52.260;6.030;2022-12-04T00:16:42;38.8;;;29.3;;
15498;SDS011;7851;52.260;6.030;2022-12-04T00:17:45;43.1;;;28.5;;
15498;SDS011;7851;52.260;6.030;2022-12-04T00:18:42;38;;;28.4;;
15498;SDS011;7851;52.260;6.030;2022-12-04T00:19:42;42.8;;;27.5;;
15498;SDS011;7851;52.260;6.030;2022-12-04T00:20:42;39.9;;;28.6;;
15498;SDS011;7851;52.260;6.030;2022-12-04T00:21:42;44.3;;;28.5;;
15498;SDS011;7851;52.260;6.030;2022-12-04T00:22:42;43.5;;;28.4;;
15498;SDS011;7851;52.260;6.030;2022-12-04T00:23:42;37.5;;;28;;
15498;SDS011;7851;52.260;6.030;2022-12-04T00:24:42;40.5;;;28.5;;
15498;SDS011;7851;52.260;6.030;2022-12-04T00:25:45;34.3;;;26.8;;
15498;SDS011;7851;52.260;6.030;2022-12-04T00:26:45;37.9;;;27.4;;
15498;SDS011;7851;52.260;6.030;2022-12-04T00:27:45;37.8;;;27.8;;
15498;SDS011;7851;52.260;6.030;2022-12-04T00:28:45;45.2;;;28.6;;
15498;SDS011;7851;52.260;6.030;2022-12-04T00:29:45;38.1;;;28.3;;
15498;SDS011;7851;52.260;6.030;2022-12-04T00:30:45;44.4;;;28.2;;
15498;SDS011;7851;52.260;6.030;2022-12-04T00:31:45;38.9;;;28.1;;
15498;SDS011;7851;52.260;6.030;2022-12-04T00:32:45;38.6;;;28.5;;
15498;SDS011;7851;52.260;6.030;2022-12-04T00:33:45;36.3;;;27.7;;
15498;SDS011;7851;52.260;6.030;2022-12-04T00:34:45;39.3;;;28.1;;
15498;SDS011;7851;52.260;6.030;2022-12-04T00:35:45;44.3;;;28.8;;
15498;SDS011;7851;52.260;6.030;2022-12-04T00:36:45;36.6;;;28.8;;
15498;SDS011;7851;52.260;6.030;2022-12-04T00:37:45;42.5;;;27.8;;
15498;SDS011;7851;52.260;6.030;2022-12-04T00:38:45;39.8;;;27.8;;
15498;SDS011;7851;52.260;6.030;2022-12-04T00:39:45;43.7;;;29;;
15498;SDS011;7851;52.260;6.030;2022-12-04T00:40:47;40.6;;;28.5;;
15498;SDS011;7851;52.260;6.030;2022-12-04T00:41:45;40;;;28.7;;
15498;SDS011;7851;52.260;6.030;2022-12-04T00:42:45;40.3;;;29;;
15498;SDS011;7851;52.260;6.030;2022-12-04T00:43:46;44.9;;;29.2;;
15498;SDS011;7851;52.260;6.030;2022-12-04T00:44:46;41.4;;;28.4;;
15498;SDS011;7851;52.260;6.030;2022-12-04T00:45:46;38.5;;;28.1;;
15498;SDS011;7851;52.260;6.030;2022-12-04T00:46:46;45.4;;;29.8;;
15498;SDS011;7851;52.260;6.030;2022-12-04T00:47:46;36.8;;;27.3;;
15498;SDS011;7851;52.260;6.030;2022-12-04T00:48:46;43.5;;;29.4;;
15498;SDS011;7851;52.260;6.030;2022-12-04T00:49:46;41.5;;;28.7;;
15498;SDS011;7851;52.260;6.030;2022-12-04T00:50:46;40.2;;;28.5;;
15498;SDS011;7851;52.260;6.030;2022-12-04T00:51:46;39.5;;;28.1;;
15498;SDS011;7851;52.260;6.030;2022-12-04T00:52:46;39.6;;;28.4;;
15498;SDS011;7851;52.260;6.030;2022-12-04T00:53:46;40.6;;;28.6;;
15498;SDS011;7851;52.260;6.030;2022-12-04T00:54:46;37.5;;;28.3;;
15498;SDS011;7851;52.260;6.030;2022-12-04T00:55:46;44.7;;;29.6;;
15498;SDS011;7851;52.260;6.030;2022-12-04T00:56:46;38.6;;;28.6;;
15498;SDS011;7851;52.260;6.030;2022-12-04T00:57:46;39.9;;;29.1;;
15498;SDS011;7851;52.260;6.030;2022-12-04T00:58:46;37;;;27.5;;
15498;SDS011;7851;52.260;6.030;2022-12-04T00:59:46;41.6;;;28.7;;
15498;SDS011;7851;52.260;6.030;2022-12-04T01:00:46;36;;;28.5;;
15498;SDS011;7851;52.260;6.030;2022-12-04T01:01:46;40.7;;;29.5;;
15498;SDS011;7851;52.260;6.030;2022-12-04T01:02:46;39.2;;;27.9;;
15498;SDS011;7851;52.260;6.030;2022-12-04T01:03:46;40.5;;;28.1;;
15498;SDS011;7851;52.260;6.030;2022-12-04T01:04:46;42.1;;;29.5;;
15498;SDS011;7851;52.260;6.030;2022-12-04T01:05:46;42.3;;;28.1;;
15498;SDS011;7851;52.260;6.030;2022-12-04T01:06:46;37.7;;;28.7;;
15498;SDS011;7851;52.260;6.030;2022-12-04T01:07:46;38.9;;;28.7;;
15498;SDS011;7851;52.260;6.030;2022-12-04T01:08:46;42.4;;;29.1;;
15498;SDS011;7851;52.260;6.030;2022-12-04T01:09:46;41.6;;;28.7;;
15498;SDS011;7851;52.260;6.030;2022-12-04T01:10:46;40;;;28.8;;
15498;SDS011;7851;52.260;6.030;2022-12-04T01:11:46;44.8;;;29.1;;
15498;SDS011;7851;52.260;6.030;2022-12-04T01:12:47;41.6;;;28.1;;
15498;SDS011;7851;52.260;6.030;2022-12-04T01:13:46;44.9;;;29.3;;
15498;SDS011;7851;52.260;6.030;2022-12-04T01:14:46;40.4;;;28.7;;
15498;SDS011;7851;52.260;6.030;2022-12-04T01:15:46;42.5;;;28.5;;
15498;SDS011;7851;52.260;6.030;2022-12-04T01:16:46;42.1;;;29.5;;
15498;SDS011;7851;52.260;6.030;2022-12-04T01:17:46;37.4;;;28.4;;
15498;SDS011;7851;52.260;6.030;2022-12-04T01:18:46;41.1;;;28.4;;
15498;SDS011;7851;52.260;6.030;2022-12-04T01:19:46;39;;;28.7;;
15498;SDS011;7851;52.260;6.030;2022-12-04T01:20:46;39.1;;;27.8;;
15498;SDS011;7851;52.260;6.030;2022-12-04T01:21:46;41.4;;;28.2;;
15498;SDS011;7851;52.260;6.030;2022-12-04T01:22:46;39.8;;;28.8;;
15498;SDS011;7851;52.260;6.030;2022-12-04T01:23:46;39.5;;;28.5;;
15498;SDS011;7851;52.260;6.030;2022-12-04T01:24:46;38.5;;;29.3;;
15498;SDS011;7851;52.260;6.030;2022-12-04T01:25:49;38.1;;;27.5;;
15498;SDS011;7851;52.260;6.030;2022-12-04T01:26:46;40.8;;;29.8;;
15498;SDS011;7851;52.260;6.030;2022-12-04T01:27:46;41.2;;;28.3;;
15498;SDS011;7851;52.260;6.030;2022-12-04T01:28:46;45.7;;;28.6;;
15498;SDS011;7851;52.260;6.030;2022-12-04T01:29:46;41.1;;;29.8;;
15498;SDS011;7851;52.260;6.030;2022-12-04T01:30:55;40.5;;;29.1;;
15498;SDS011;7851;52.260;6.030;2022-12-04T01:31:46;44.3;;;28.7;;
15498;SDS011;7851;52.260;6.030;2022-12-04T01:32:46;41.6;;;28.7;;
15498;SDS011;7851;52.260;6.030;2022-12-04T01:33:46;38.8;;;28.6;;
15498;SDS011;7851;52.260;6.030;2022-12-04T01:34:46;43.6;;;30.7;;
15498;SDS011;7851;52.260;6.030;2022-12-04T01:35:50;43.9;;;29.7;;
15498;SDS011;7851;52.260;6.030;2022-12-04T01:36:46;35.1;;;28;;
15498;SDS011;7851;52.260;6.030;2022-12-04T01:37:46;44.4;;;29.9;;
15498;SDS011;7851;52.260;6.030;2022-12-04T01:38:46;51.9;;;30;;
15498;SDS011;7851;52.260;6.030;2022-12-04T01:39:46;43.9;;;28.4;;
15498;SDS011;7851;52.260;6.030;2022-12-04T01:40:46;40.1;;;29.5;;
15498;SDS011;7851;52.260;6.030;2022-12-04T01:41:46;37.5;;;29.1;;
15498;SDS011;7851;52.260;6.030;2022-12-04T01:42:45;42.4;;;29.3;;
15498;SDS011;7851;52.260;6.030;2022-12-04T01:44:04;43.7;;;29.6;;
15498;SDS011;7851;52.260;6.030;2022-12-04T01:45:25;41.3;;;29.1;;
15498;SDS011;7851;52.260;6.030;2022-12-04T01:45:46;43.1;;;29.3;;
15498;SDS011;7851;52.260;6.030;2022-12-04T01:46:46;44.1;;;29.7;;
15498;SDS011;7851;52.260;6.030;2022-12-04T01:47:46;48.3;;;30.9;;
15498;SDS011;7851;52.260;6.030;2022-12-04T01:48:48;40.4;;;28.8;;
15498;SDS011;7851;52.260;6.030;2022-12-04T01:49:46;37.6;;;29.4;;
15498;SDS011;7851;52.260;6.030;2022-12-04T01:50:46;44.8;;;32.2;;
15498;SDS011;7851;52.260;6.030;2022-12-04T01:51:47;41.3;;;29.9;;
15498;SDS011;7851;52.260;6.030;2022-12-04T01:52:46;41.8;;;30.3;;
15498;SDS011;7851;52.260;6.030;2022-12-04T01:53:46;37.4;;;28.9;;
15498;SDS011;7851;52.260;6.030;2022-12-04T01:54:46;38.2;;;28.4;;
15498;SDS011;7851;52.260;6.030;2022-12-04T01:55:46;44.3;;;30.9;;
15498;SDS011;7851;52.260;6.030;2022-12-04T01:56:47;39.8;;;29.5;;
15498;SDS011;7851;52.260;6.030;2022-12-04T01:57:46;39.8;;;28.9;;
15498;SDS011;7851;52.260;6.030;2022-12-04T01:58:46;42.7;;;29.6;;
15498;SDS011;7851;52.260;6.030;2022-12-04T01:59:47;44.2;;;30.7;;
15498;SDS011;7851;52.260;6.030;2022-12-04T02:00:46;48;;;30.6;;
15498;SDS011;7851;52.260;6.030;2022-12-04T02:01:48;44;;;29.6;;
15498;SDS011;7851;52.260;6.030;2022-12-04T02:02:46;43.4;;;29.6;;
15498;SDS011;7851;52.260;6.030;2022-12-04T02:03:46;43.7;;;30.2;;
15498;SDS011;7851;52.260;6.030;2022-12-04T02:04:46;41.8;;;29.1;;
15498;SDS011;7851;52.260;6.030;2022-12-04T02:05:46;43.8;;;29.3;;
15498;SDS011;7851;52.260;6.030;2022-12-04T02:06:46;38.9;;;29.4;;
15498;SDS011;7851;52.260;6.030;2022-12-04T02:07:46;44.4;;;29.3;;
15498;SDS011;7851;52.260;6.030;2022-12-04T02:08:46;41.3;;;30.1;;
15498;SDS011;7851;52.260;6.030;2022-12-04T02:09:46;38.6;;;29.6;;
15498;SDS011;7851;52.260;6.030;2022-12-04T02:10:49;38;;;29.2;;
15498;SDS011;7851;52.260;6.030;2022-12-04T02:11:49;36.8;;;28.3;;
15498;SDS011;7851;52.260;6.030;2022-12-04T02:12:46;48;;;29.8;;
15498;SDS011;7851;52.260;6.030;2022-12-04T02:13:48;40.1;;;30.6;;
15498;SDS011;7851;52.260;6.030;2022-12-04T02:14:47;51.4;;;29.8;;
15498;SDS011;7851;52.260;6.030;2022-12-04T02:15:47;41.1;;;31;;
15498;SDS011;7851;52.260;6.030;2022-12-04T02:16:47;42.4;;;29.2;;
15498;SDS011;7851;52.260;6.030;2022-12-04T02:17:47;46.5;;;30;;
15498;SDS011;7851;52.260;6.030;2022-12-04T02:18:49;41.2;;;30.6;;
15498;SDS011;7851;52.260;6.030;2022-12-04T02:19:56;42.6;;;30.4;;
15498;SDS011;7851;52.260;6.030;2022-12-04T02:20:46;38.5;;;29.7;;
15498;SDS011;7851;52.260;6.030;2022-12-04T02:21:46;39.1;;;29;;
15498;SDS011;7851;52.260;6.030;2022-12-04T02:22:58;36.7;;;28.5;;
15498;SDS011;7851;52.260;6.030;2022-12-04T02:23:49;35.9;;;29.3;;
15498;SDS011;7851;52.260;6.030;2022-12-04T02:24:46;44.5;;;29.9;;
15498;SDS011;7851;52.260;6.030;2022-12-04T02:25:47;42.5;;;29.6;;
15498;SDS011;7851;52.260;6.030;2022-12-04T02:26:46;38.5;;;28.5;;
15498;SDS011;7851;52.260;6.030;2022-12-04T02:27:57;47.2;;;29.8;;
15498;SDS011;7851;52.260;6.030;2022-12-04T02:28:47;51.9;;;30.5;;
15498;SDS011;7851;52.260;6.030;2022-12-04T02:29:47;47.7;;;30.9;;
15498;SDS011;7851;52.260;6.030;2022-12-04T02:30:45;36.8;;;29.2;;
15498;SDS011;7851;52.260;6.030;2022-12-04T02:31:47;38.6;;;29.2;;
15498;SDS011;7851;52.260;6.030;2022-12-04T02:32:47;36.9;;;29.4;;
15498;SDS011;7851;52.260;6.030;2022-12-04T02:33:47;42.9;;;30.9;;
15498;SDS011;7851;52.260;6.030;2022-12-04T02:34:46;37.4;;;30.4;;
15498;SDS011;7851;52.260;6.030;2022-12-04T02:35:46;50.4;;;32.1;;
15498;SDS011;7851;52.260;6.030;2022-12-04T02:36:46;44.7;;;30.9;;
15498;SDS011;7851;52.260;6.030;2022-12-04T02:37:46;42.6;;;31.3;;
15498;SDS011;7851;52.260;6.030;2022-12-04T02:38:47;44.1;;;31.9;;
15498;SDS011;7851;52.260;6.030;2022-12-04T02:39:48;42.5;;;31.6;;
15498;SDS011;7851;52.260;6.030;2022-12-04T02:40:48;42.3;;;31.3;;
15498;SDS011;7851;52.260;6.030;2022-12-04T02:41:46;42.8;;;30.7;;
15498;SDS011;7851;52.260;6.030;2022-12-04T02:42:46;44.3;;;31.8;;
15498;SDS011;7851;52.260;6.030;2022-12-04T02:43:46;46.8;;;31.5;;
15498;SDS011;7851;52.260;6.030;2022-12-04T02:44:46;45.6;;;31.7;;
15498;SDS011;7851;52.260;6.030;2022-12-04T02:45:46;52.2;;;31.1;;
15498;SDS011;7851;52.260;6.030;2022-12-04T02:46:46;43.7;;;31.1;;
15498;SDS011;7851;52.260;6.030;2022-12-04T02:47:46;49.5;;;31.8;;
15498;SDS011;7851;52.260;6.030;2022-12-04T02:48:47;42.2;;;31.3;;
15498;SDS011;7851;52.260;6.030;2022-12-04T02:49:46;54.8;;;32.5;;
15498;SDS011;7851;52.260;6.030;2022-12-04T02:50:46;43.2;;;32.2;;
15498;SDS011;7851;52.260;6.030;2022-12-04T02:51:45;45;;;32;;
15498;SDS011;7851;52.260;6.030;2022-12-04T02:52:47;48.1;;;31.9;;
15498;SDS011;7851;52.260;6.030;2022-12-04T02:53:46;44.1;;;30.2;;
15498;SDS011;7851;52.260;6.030;2022-12-04T02:54:48;46.1;;;32.5;;
15498;SDS011;7851;52.260;6.030;2022-12-04T02:55:47;48.1;;;32.6;;
15498;SDS011;7851;52.260;6.030;2022-12-04T02:56:45;48.4;;;32.7;;
15498;SDS011;7851;52.260;6.030;2022-12-04T02:57:47;44.4;;;31.7;;
15498;SDS011;7851;52.260;6.030;2022-12-04T02:58:47;45.6;;;32.4;;
15498;SDS011;7851;52.260;6.030;2022-12-04T02:59:46;39.9;;;31.2;;
15498;SDS011;7851;52.260;6.030;2022-12-04T03:00:46;44.4;;;31.7;;
15498;SDS011;7851;52.260;6.030;2022-12-04T03:01:46;45.5;;;31.1;;
15498;SDS011;7851;52.260;6.030;2022-12-04T03:02:47;43.8;;;31.3;;
15498;SDS011;7851;52.260;6.030;2022-12-04T03:03:47;40.2;;;30.8;;
15498;SDS011;7851;52.260;6.030;2022-12-04T03:04:46;47.6;;;32.5;;
15498;SDS011;7851;52.260;6.030;2022-12-04T03:05:47;42.8;;;31.4;;
15498;SDS011;7851;52.260;6.030;2022-12-04T03:06:47;51.2;;;32.8;;
15498;SDS011;7851;52.260;6.030;2022-12-04T03:07:46;46.7;;;32.4;;
15498;SDS011;7851;52.260;6.030;2022-12-04T03:08:46;46.5;;;32.5;;
15498;SDS011;7851;52.260;6.030;2022-12-04T03:09:46;46.8;;;32.9;;
15498;SDS011;7851;52.260;6.030;2022-12-04T03:10:47;42.5;;;31.9;;
15498;SDS011;7851;52.260;6.030;2022-12-04T03:11:48;46.7;;;32.2;;
15498;SDS011;7851;52.260;6.030;2022-12-04T03:12:46;43.2;;;31.8;;
15498;SDS011;7851;52.260;6.030;2022-12-04T03:13:46;52.5;;;32.6;;
15498;SDS011;7851;52.260;6.030;2022-12-04T03:14:46;50.2;;;32.7;;
15498;SDS011;7851;52.260;6.030;2022-12-04T03:15:46;43.3;;;33.2;;
15498;SDS011;7851;52.260;6.030;2022-12-04T03:16:46;51.5;;;33;;
15498;SDS011;7851;52.260;6.030;2022-12-04T03:17:46;48.5;;;33.4;;
15498;SDS011;7851;52.260;6.030;2022-12-04T03:18:47;48.6;;;33.1;;
15498;SDS011;7851;52.260;6.030;2022-12-04T03:19:47;42.9;;;32;;
15498;SDS011;7851;52.260;6.030;2022-12-04T03:20:47;43;;;31.3;;
15498;SDS011;7851;52.260;6.030;2022-12-04T03:21:47;50.4;;;33.2;;
15498;SDS011;7851;52.260;6.030;2022-12-04T03:22:47;51;;;31.7;;
15498;SDS011;7851;52.260;6.030;2022-12-04T03:23:46;47.1;;;33.6;;
15498;SDS011;7851;52.260;6.030;2022-12-04T03:24:47;45.3;;;32.7;;
15498;SDS011;7851;52.260;6.030;2022-12-04T03:25:48;46.6;;;33.6;;
15498;SDS011;7851;52.260;6.030;2022-12-04T03:26:46;51.3;;;32.6;;
15498;SDS011;7851;52.260;6.030;2022-12-04T03:27:47;55.9;;;33.9;;
15498;SDS011;7851;52.260;6.030;2022-12-04T03:28:49;42.2;;;31.9;;
15498;SDS011;7851;52.260;6.030;2022-12-04T03:29:51;44.2;;;32.1;;
15498;SDS011;7851;52.260;6.030;2022-12-04T03:30:48;44.4;;;32.8;;
15498;SDS011;7851;52.260;6.030;2022-12-04T03:31:47;46;;;33.1;;
15498;SDS011;7851;52.260;6.030;2022-12-04T03:32:47;48.6;;;32.6;;
15498;SDS011;7851;52.260;6.030;2022-12-04T03:33:46;44.6;;;32.9;;
15498;SDS011;7851;52.260;6.030;2022-12-04T03:34:47;42.7;;;32.2;;
15498;SDS011;7851;52.260;6.030;2022-12-04T03:35:46;44.9;;;31.8;;
15498;SDS011;7851;52.260;6.030;2022-12-04T03:36:46;43.7;;;32.8;;
15498;SDS011;7851;52.260;6.030;2022-12-04T03:37:51;45.1;;;32.4;;
15498;SDS011;7851;52.260;6.030;2022-12-04T03:38:47;54.5;;;33.6;;
15498;SDS011;7851;52.260;6.030;2022-12-04T03:39:48;39.9;;;31.1;;
15498;SDS011;7851;52.260;6.030;2022-12-04T03:40:48;43.6;;;31.7;;
15498;SDS011;7851;52.260;6.030;2022-12-04T03:41:47;39.4;;;30.7;;
15498;SDS011;7851;52.260;6.030;2022-12-04T03:42:47;48.6;;;32.2;;
15498;SDS011;7851;52.260;6.030;2022-12-04T03:43:47;48.6;;;33.2;;
15498;SDS011;7851;52.260;6.030;2022-12-04T03:44:47;39.5;;;31.8;;
15498;SDS011;7851;52.260;6.030;2022-12-04T03:45:46;51.4;;;33.4;;
15498;SDS011;7851;52.260;6.030;2022-12-04T03:46:47;43;;;30.5;;
15498;SDS011;7851;52.260;6.030;2022-12-04T03:47:47;50.7;;;33.3;;
15498;SDS011;7851;52.260;6.030;2022-12-04T03:48:47;45.5;;;32;;
15498;SDS011;7851;52.260;6.030;2022-12-04T03:49:47;48.6;;;31.4;;
15498;SDS011;7851;52.260;6.030;2022-12-04T03:50:46;43.8;;;31.2;;
15498;SDS011;7851;52.260;6.030;2022-12-04T03:51:46;45.7;;;32.3;;
15498;SDS011;7851;52.260;6.030;2022-12-04T03:52:47;45.7;;;33.4;;
15498;SDS011;7851;52.260;6.030;2022-12-04T03:53:46;47.3;;;32.4;;
15498;SDS011;7851;52.260;6.030;2022-12-04T03:54:47;46.6;;;31.6;;
15498;SDS011;7851;52.260;6.030;2022-12-04T03:55:46;46.3;;;32.4;;
15498;SDS011;7851;52.260;6.030;2022-12-04T03:56:46;45.4;;;32.3;;
15498;SDS011;7851;52.260;6.030;2022-12-04T03:57:46;47;;;33.9;;
15498;SDS011;7851;52.260;6.030;2022-12-04T03:58:46;45.9;;;32;;
15498;SDS011;7851;52.260;6.030;2022-12-04T03:59:47;45;;;31.2;;
15498;SDS011;7851;52.260;6.030;2022-12-04T04:00:46;47.7;;;33.3;;
15498;SDS011;7851;52.260;6.030;2022-12-04T04:01:47;43.2;;;31.7;;
15498;SDS011;7851;52.260;6.030;2022-12-04T04:02:47;41.2;;;31.3;;
15498;SDS011;7851;52.260;6.030;2022-12-04T04:03:47;39;;;29.4;;
15498;SDS011;7851;52.260;6.030;2022-12-04T04:04:46;49.4;;;32.5;;
15498;SDS011;7851;52.260;6.030;2022-12-04T04:05:47;53.2;;;33;;
15498;SDS011;7851;52.260;6.030;2022-12-04T04:06:46;43.6;;;31.8;;
15498;SDS011;7851;52.260;6.030;2022-12-04T04:07:46;42.2;;;32.4;;
15498;SDS011;7851;52.260;6.030;2022-12-04T04:08:47;42.5;;;31.5;;
15498;SDS011;7851;52.260;6.030;2022-12-04T04:09:46;44.3;;;31.6;;
15498;SDS011;7851;52.260;6.030;2022-12-04T04:10:45;43.8;;;31.9;;
15498;SDS011;7851;52.260;6.030;2022-12-04T04:11:46;47.9;;;33;;
15498;SDS011;7851;52.260;6.030;2022-12-04T04:12:47;43.9;;;32.7;;
15498;SDS011;7851;52.260;6.030;2022-12-04T04:13:47;39.4;;;29.9;;
15498;SDS011;7851;52.260;6.030;2022-12-04T04:14:46;48.6;;;32.3;;
15498;SDS011;7851;52.260;6.030;2022-12-04T04:15:48;45.9;;;31.3;;
15498;SDS011;7851;52.260;6.030;2022-12-04T04:16:46;39.4;;;30.4;;
15498;SDS011;7851;52.260;6.030;2022-12-04T04:17:46;40.1;;;31.3;;
15498;SDS011;7851;52.260;6.030;2022-12-04T04:18:45;39.7;;;31.8;;
15498;SDS011;7851;52.260;6.030;2022-12-04T04:19:46;43.3;;;32.3;;
15498;SDS011;7851;52.260;6.030;2022-12-04T04:20:47;44.6;;;30.5;;
15498;SDS011;7851;52.260;6.030;2022-12-04T04:21:46;44.9;;;32.1;;
15498;SDS011;7851;52.260;6.030;2022-12-04T04:22:46;48.3;;;31.5;;
15498;SDS011;7851;52.260;6.030;2022-12-04T04:23:47;39.4;;;30.7;;
15498;SDS011;7851;52.260;6.030;2022-12-04T04:24:46;49.7;;;33.1;;
15498;SDS011;7851;52.260;6.030;2022-12-04T04:25:46;41.1;;;30.6;;
15498;SDS011;7851;52.260;6.030;2022-12-04T04:26:46;44.7;;;30.6;;
15498;SDS011;7851;52.260;6.030;2022-12-04T04:27:49;44.8;;;31.4;;
15498;SDS011;7851;52.260;6.030;2022-12-04T04:28:45;44.8;;;32.7;;
15498;SDS011;7851;52.260;6.030;2022-12-04T04:29:45;40.6;;;30.7;;
15498;SDS011;7851;52.260;6.030;2022-12-04T04:30:45;46.3;;;31.9;;
15498;SDS011;7851;52.260;6.030;2022-12-04T04:31:46;40.9;;;31.6;;
15498;SDS011;7851;52.260;6.030;2022-12-04T04:32:47;40.4;;;30.1;;
15498;SDS011;7851;52.260;6.030;2022-12-04T04:33:47;47.6;;;31.2;;
15498;SDS011;7851;52.260;6.030;2022-12-04T04:34:48;43.4;;;31.1;;
15498;SDS011;7851;52.260;6.030;2022-12-04T04:35:47;42.6;;;31.6;;
15498;SDS011;7851;52.260;6.030;2022-12-04T04:36:48;44.3;;;31.4;;
15498;SDS011;7851;52.260;6.030;2022-12-04T04:37:48;46.7;;;32.1;;
15498;SDS011;7851;52.260;6.030;2022-12-04T04:38:47;44.3;;;31.6;;
15498;SDS011;7851;52.260;6.030;2022-12-04T04:39:47;40.4;;;30.2;;
15498;SDS011;7851;52.260;6.030;2022-12-04T04:40:47;41.2;;;31.6;;
15498;SDS011;7851;52.260;6.030;2022-12-04T04:41:47;41.3;;;31.5;;
15498;SDS011;7851;52.260;6.030;2022-12-04T04:42:47;44.5;;;32;;
15498;SDS011;7851;52.260;6.030;2022-12-04T04:43:47;46.4;;;31.8;;
15498;SDS011;7851;52.260;6.030;2022-12-04T04:44:46;39.5;;;30.3;;
15498;SDS011;7851;52.260;6.030;2022-12-04T04:45:46;47;;;30.8;;
15498;SDS011;7851;52.260;6.030;2022-12-04T04:46:46;42.3;;;31.1;;
15498;SDS011;7851;52.260;6.030;2022-12-04T04:47:46;43;;;30.8;;
15498;SDS011;7851;52.260;6.030;2022-12-04T04:48:46;43.8;;;30.5;;
15498;SDS011;7851;52.260;6.030;2022-12-04T04:49:46;44.7;;;30.7;;
15498;SDS011;7851;52.260;6.030;2022-12-04T04:50:45;51.8;;;32.5;;
15498;SDS011;7851;52.260;6.030;2022-12-04T04:51:45;43.7;;;32.1;;
15498;SDS011;7851;52.260;6.030;2022-12-04T04:52:46;44.1;;;32.2;;
15498;SDS011;7851;52.260;6.030;2022-12-04T04:53:46;44.8;;;32.1;;
15498;SDS011;7851;52.260;6.030;2022-12-04T04:54:46;43.5;;;30.9;;
15498;SDS011;7851;52.260;6.030;2022-12-04T04:55:45;46.3;;;30.6;;
15498;SDS011;7851;52.260;6.030;2022-12-04T04:56:46;49.1;;;31.3;;
15498;SDS011;7851;52.260;6.030;2022-12-04T04:57:46;43.7;;;31.5;;
15498;SDS011;7851;52.260;6.030;2022-12-04T04:58:45;47.7;;;30.4;;
15498;SDS011;7851;52.260;6.030;2022-12-04T04:59:45;46.2;;;31.7;;
15498;SDS011;7851;52.260;6.030;2022-12-04T05:00:47;44.7;;;31.7;;
15498;SDS011;7851;52.260;6.030;2022-12-04T05:01:45;42.3;;;30.9;;
15498;SDS011;7851;52.260;6.030;2022-12-04T05:02:45;46.2;;;30.8;;
15498;SDS011;7851;52.260;6.030;2022-12-04T05:03:45;42.6;;;31.8;;
15498;SDS011;7851;52.260;6.030;2022-12-04T05:04:45;39.1;;;29.2;;
15498;SDS011;7851;52.260;6.030;2022-12-04T05:05:45;41.8;;;32;;
15498;SDS011;7851;52.260;6.030;2022-12-04T05:06:45;43.1;;;31.3;;
15498;SDS011;7851;52.260;6.030;2022-12-04T05:07:45;44.1;;;31.7;;
15498;SDS011;7851;52.260;6.030;2022-12-04T05:08:45;41.8;;;30.8;;
15498;SDS011;7851;52.260;6.030;2022-12-04T05:09:45;47.6;;;31.7;;
15498;SDS011;7851;52.260;6.030;2022-12-04T05:10:45;43.3;;;30.7;;
15498;SDS011;7851;52.260;6.030;2022-12-04T05:11:45;41.2;;;30.8;;
15498;SDS011;7851;52.260;6.030;2022-12-04T05:12:45;54.8;;;31.1;;
15498;SDS011;7851;52.260;6.030;2022-12-04T05:13:45;46.8;;;31.6;;
15498;SDS011;7851;52.260;6.030;2022-12-04T05:14:46;55.6;;;33;;
15498;SDS011;7851;52.260;6.030;2022-12-04T05:15:54;49.3;;;32.2;;
15498;SDS011;7851;52.260;6.030;2022-12-04T05:16:45;42.2;;;30.9;;
15498;SDS011;7851;52.260;6.030;2022-12-04T05:17:45;44.8;;;30.5;;
15498;SDS011;7851;52.260;6.030;2022-12-04T05:18:45;44.6;;;30.9;;
15498;SDS011;7851;52.260;6.030;2022-12-04T05:19:45;47.1;;;31.4;;
15498;SDS011;7851;52.260;6.030;2022-12-04T05:20:45;42.2;;;31.1;;
15498;SDS011;7851;52.260;6.030;2022-12-04T05:21:45;41.1;;;30.7;;
15498;SDS011;7851;52.260;6.030;2022-12-04T05:22:45;41.6;;;30.7;;
15498;SDS011;7851;52.260;6.030;2022-12-04T05:23:45;44.7;;;31.8;;
15498;SDS011;7851;52.260;6.030;2022-12-04T05:24:45;51;;;31.3;;
15498;SDS011;7851;52.260;6.030;2022-12-04T05:25:45;42.5;;;30.5;;
15498;SDS011;7851;52.260;6.030;2022-12-04T05:26:45;45.5;;;32;;
15498;SDS011;7851;52.260;6.030;2022-12-04T05:27:45;44.3;;;30.8;;
15498;SDS011;7851;52.260;6.030;2022-12-04T05:28:45;40.8;;;30.7;;
15498;SDS011;7851;52.260;6.030;2022-12-04T05:29:45;38.5;;;30.4;;
15498;SDS011;7851;52.260;6.030;2022-12-04T05:30:52;39.6;;;30.4;;
15498;SDS011;7851;52.260;6.030;2022-12-04T05:31:45;43.2;;;30.7;;
15498;SDS011;7851;52.260;6.030;2022-12-04T05:32:45;42.9;;;31.3;;
15498;SDS011;7851;52.260;6.030;2022-12-04T05:33:45;46.3;;;30.8;;
15498;SDS011;7851;52.260;6.030;2022-12-04T05:34:46;49.7;;;33;;
15498;SDS011;7851;52.260;6.030;2022-12-04T05:35:54;44.3;;;31;;
15498;SDS011;7851;52.260;6.030;2022-12-04T05:36:45;50.3;;;31;;
15498;SDS011;7851;52.260;6.030;2022-12-04T05:37:45;42.1;;;30.6;;
15498;SDS011;7851;52.260;6.030;2022-12-04T05:38:45;41.4;;;30.9;;
15498;SDS011;7851;52.260;6.030;2022-12-04T05:39:45;46.6;;;30.2;;
15498;SDS011;7851;52.260;6.030;2022-12-04T05:40:45;39.4;;;30.3;;
15498;SDS011;7851;52.260;6.030;2022-12-04T05:41:45;44.9;;;30.8;;
15498;SDS011;7851;52.260;6.030;2022-12-04T05:42:46;44.8;;;30.9;;
15498;SDS011;7851;52.260;6.030;2022-12-04T05:43:45;44.6;;;31.6;;
15498;SDS011;7851;52.260;6.030;2022-12-04T05:44:46;45.5;;;31.3;;
15498;SDS011;7851;52.260;6.030;2022-12-04T05:45:45;45.2;;;31.5;;
15498;SDS011;7851;52.260;6.030;2022-12-04T05:46:45;42.3;;;30.9;;
15498;SDS011;7851;52.260;6.030;2022-12-04T05:47:45;43.6;;;31.2;;
15498;SDS011;7851;52.260;6.030;2022-12-04T05:48:45;45.3;;;31.5;;
15498;SDS011;7851;52.260;6.030;2022-12-04T05:49:45;46.8;;;32.8;;
15498;SDS011;7851;52.260;6.030;2022-12-04T05:50:45;40.3;;;30.1;;
15498;SDS011;7851;52.260;6.030;2022-12-04T05:51:45;45.4;;;32;;
15498;SDS011;7851;52.260;6.030;2022-12-04T05:52:45;51.2;;;31.7;;
15498;SDS011;7851;52.260;6.030;2022-12-04T05:53:45;45.4;;;31.2;;
15498;SDS011;7851;52.260;6.030;2022-12-04T05:54:45;45.9;;;29.8;;
15498;SDS011;7851;52.260;6.030;2022-12-04T05:55:52;40.7;;;30.9;;
15498;SDS011;7851;52.260;6.030;2022-12-04T05:56:45;48.3;;;31.5;;
15498;SDS011;7851;52.260;6.030;2022-12-04T05:57:45;47.5;;;31.8;;
15498;SDS011;7851;52.260;6.030;2022-12-04T05:58:45;40.5;;;30.5;;
15498;SDS011;7851;52.260;6.030;2022-12-04T05:59:45;46.9;;;31.6;;
15498;SDS011;7851;52.260;6.030;2022-12-04T06:00:45;43.5;;;31.3;;
15498;SDS011;7851;52.260;6.030;2022-12-04T06:01:45;42.7;;;31;;
15498;SDS011;7851;52.260;6.030;2022-12-04T06:02:45;45.2;;;32.8;;
15498;SDS011;7851;52.260;6.030;2022-12-04T06:03:45;45.4;;;32.4;;
15498;SDS011;7851;52.260;6.030;2022-12-04T06:04:45;42.7;;;31.9;;
15498;SDS011;7851;52.260;6.030;2022-12-04T06:05:45;47.1;;;31.4;;
15498;SDS011;7851;52.260;6.030;2022-12-04T06:06:45;44.4;;;31.3;;
15498;SDS011;7851;52.260;6.030;2022-12-04T06:07:45;43.3;;;32.1;;
15498;SDS011;7851;52.260;6.030;2022-12-04T06:08:46;47.6;;;33.8;;
15498;SDS011;7851;52.260;6.030;2022-12-04T06:09:45;45.7;;;32.4;;